Time;durP1;ratioP1;P1;durP2;ratioP2;P2;SDS_P1;SDS_P2;PMS_P1;PMS_P2;Temp;Humidity;BMP_temperature;BMP_pressure;BME280_temperature;BME280_humidity;BME280_pressure;Samples;Min_cycle;Max_cycle;Signal;HPM_P1;HPM_P2
2021/05/12 00:00:54;;;;;;;;;;;21.40;59.20;;;;;;5040102;28;19967;-75
2021/05/12 00:03:20;;;;;;;;;;;21.40;59.20;;;;;;5057042;28;19917;-74
2021/05/12 00:05:45;;;;;;;;;;;21.40;59.20;;;;;;5054057;28;19924;-74
2021/05/12 00:08:11;;;;;;;;;;;21.40;59.20;;;;;;5035335;28;19913;-74
2021/05/12 00:10:37;;;;;;;;;;;21.40;59.20;;;;;;5038590;28;20278;-74
2021/05/12 00:13:02;;;;;;;;;;;21.40;59.20;;;;;;5055841;28;19913;-74
2021/05/12 00:15:28;;;;;;;;;;;21.40;59.20;;;;;;5034394;28;19919;-75
2021/05/12 00:17:54;;;;;;;;;;;21.40;59.20;;;;;;5050551;28;20007;-74
2021/05/12 00:20:24;;;;;;;;;;;21.40;59.20;;;;;;5056547;28;20326;-74
2021/05/12 00:23:06;;;;;;;;;;;21.40;59.20;;;;;;5042276;28;19924;-75
2021/05/12 00:25:32;;;;;;;;;;;21.40;59.20;;;;;;5031599;28;19917;-75
2021/05/12 00:27:57;;;;;;;;;;;21.40;59.20;;;;;;5052597;28;19916;-75
2021/05/12 00:30:23;;;;;;;;;;;21.40;59.20;;;;;;5060329;28;19916;-74
2021/05/12 00:32:49;;;;;;;;;;;21.30;59.20;;;;;;5057445;28;19948;-74
2021/05/12 00:35:17;;;;;;;;;;;21.40;59.30;;;;;;5035576;28;19921;-75
2021/05/12 00:37:43;;;;;;;;;;;21.40;59.20;;;;;;5034646;28;19920;-74
2021/05/12 00:40:09;;;;;;;;;;;21.40;59.20;;;;;;5035422;28;19916;-75
2021/05/12 00:42:35;;;;;;;;;;;21.40;59.30;;;;;;5053071;28;19923;-75
2021/05/12 00:45:03;;;;;;;;;;;21.30;59.30;;;;;;5053561;28;19924;-74
2021/05/12 00:47:30;;;;;;;;;;;21.30;59.30;;;;;;5052975;28;20446;-75
2021/05/12 00:49:56;;;;;;;;;;;21.30;59.30;;;;;;5054981;28;20464;-74
2021/05/12 00:52:23;;;;;;;;;;;21.30;59.30;;;;;;5052936;28;19917;-75
2021/05/12 00:54:53;;;;;;;;;;;21.30;59.30;;;;;;5038519;28;19920;-74
2021/05/12 00:57:19;;;;;;;;;;;21.30;59.30;;;;;;5051029;28;19920;-74
2021/05/12 00:59:45;;;;;;;;;;;21.30;59.30;;;;;;5039358;28;19912;-75
2021/05/12 01:02:11;;;;;;;;;;;21.30;59.30;;;;;;5055402;28;19927;-74
2021/05/12 01:04:39;;;;;;;;;;;21.30;59.30;;;;;;5048733;28;19917;-74
2021/05/12 01:07:05;;;;;;;;;;;21.30;59.30;;;;;;5055326;28;19917;-75
2021/05/12 01:09:31;;;;;;;;;;;21.30;59.30;;;;;;5037832;28;19936;-74
2021/05/12 01:12:01;;;;;;;;;;;21.30;59.30;;;;;;5039053;28;20366;-76
2021/05/12 01:14:39;;;;;;;;;;;21.30;59.30;;;;;;5054115;28;19994;-76
2021/05/12 01:17:05;;;;;;;;;;;21.30;59.30;;;;;;5035237;28;19917;-74
2021/05/12 01:19:31;;;;;;;;;;;21.30;59.30;;;;;;5040512;28;19917;-74
2021/05/12 01:21:56;;;;;;;;;;;21.30;59.30;;;;;;5053611;28;19920;-75
2021/05/12 01:24:22;;;;;;;;;;;21.30;59.30;;;;;;5054208;28;19924;-74
2021/05/12 01:26:47;;;;;;;;;;;21.30;59.30;;;;;;5039109;28;19924;-74
2021/05/12 01:29:13;;;;;;;;;;;21.30;59.30;;;;;;5046566;28;19966;-74
2021/05/12 01:31:41;;;;;;;;;;;21.30;59.30;;;;;;5052650;28;20001;-74
2021/05/12 01:34:07;;;;;;;;;;;21.30;59.30;;;;;;5056307;28;20392;-75
2021/05/12 01:36:33;;;;;;;;;;;21.30;59.30;;;;;;5056003;28;20410;-74
2021/05/12 01:38:59;;;;;;;;;;;21.30;59.30;;;;;;5050716;28;19913;-75
2021/05/12 01:41:25;;;;;;;;;;;21.30;59.30;;;;;;5035403;28;20251;-74
2021/05/12 01:43:52;;;;;;;;;;;21.30;59.30;;;;;;5036925;28;20351;-76
2021/05/12 01:46:17;;;;;;;;;;;21.30;59.30;;;;;;5052695;28;19921;-75
2021/05/12 01:48:43;;;;;;;;;;;21.30;59.30;;;;;;5053104;28;19919;-74
2021/05/12 01:51:09;;;;;;;;;;;21.30;59.30;;;;;;5053032;28;20011;-75
2021/05/12 01:53:35;;;;;;;;;;;21.30;59.30;;;;;;5035052;28;20354;-74
2021/05/12 01:56:01;;;;;;;;;;;21.30;59.30;;;;;;5053676;28;20015;-74
2021/05/12 01:58:27;;;;;;;;;;;21.30;59.30;;;;;;5046309;28;20011;-76
2021/05/12 02:00:54;;;;;;;;;;;21.30;59.30;;;;;;5049630;28;19917;-75
2021/05/12 02:03:19;;;;;;;;;;;21.30;59.30;;;;;;5043142;28;20015;-75
2021/05/12 02:05:46;;;;;;;;;;;21.30;59.30;;;;;;5051535;28;20426;-74
2021/05/12 02:08:13;;;;;;;;;;;21.30;59.30;;;;;;5051341;28;19913;-75
2021/05/12 02:10:41;;;;;;;;;;;21.30;59.30;;;;;;5034906;28;20366;-74
2021/05/12 02:13:07;;;;;;;;;;;21.30;59.30;;;;;;5042483;28;20320;-75
2021/05/12 02:15:32;;;;;;;;;;;21.30;59.30;;;;;;5049211;28;19917;-75
2021/05/12 02:17:58;;;;;;;;;;;21.30;59.30;;;;;;5051850;28;19913;-75
2021/05/12 02:20:25;;;;;;;;;;;21.30;59.30;;;;;;5050002;28;20003;-75
2021/05/12 02:22:58;;;;;;;;;;;21.30;59.30;;;;;;5053607;28;19916;-74
2021/05/12 02:25:24;;;;;;;;;;;21.30;59.30;;;;;;5061034;28;19916;-75
2021/05/12 02:27:49;;;;;;;;;;;21.30;59.30;;;;;;5043877;28;20062;-74
2021/05/12 02:30:15;;;;;;;;;;;21.30;59.30;;;;;;5052088;28;20011;-74
2021/05/12 02:32:40;;;;;;;;;;;21.30;59.30;;;;;;5051109;28;20032;-74
2021/05/12 02:35:08;;;;;;;;;;;21.30;59.30;;;;;;5030610;28;19917;-75
2021/05/12 02:37:33;;;;;;;;;;;21.30;59.30;;;;;;5051564;28;20385;-74
2021/05/12 02:39:59;;;;;;;;;;;21.20;59.30;;;;;;5052362;28;19913;-74
2021/05/12 02:42:24;;;;;;;;;;;21.30;59.30;;;;;;5053831;28;20277;-74
2021/05/12 02:44:50;;;;;;;;;;;21.30;59.30;;;;;;5050747;28;19928;-74
2021/05/12 02:47:15;;;;;;;;;;;21.30;59.30;;;;;;5037122;28;20374;-75
2021/05/12 02:49:41;;;;;;;;;;;21.30;59.30;;;;;;5052004;28;19924;-76
2021/05/12 02:52:07;;;;;;;;;;;21.30;59.30;;;;;;5055861;28;20282;-74
2021/05/12 02:54:33;;;;;;;;;;;21.30;59.30;;;;;;5050835;28;20011;-74
2021/05/12 02:56:59;;;;;;;;;;;21.20;59.30;;;;;;5053772;28;20078;-74
2021/05/12 02:59:25;;;;;;;;;;;21.30;59.30;;;;;;5053919;28;19967;-74
2021/05/12 03:01:50;;;;;;;;;;;21.30;59.30;;;;;;5033156;28;19925;-74
2021/05/12 03:04:16;;;;;;;;;;;21.20;59.30;;;;;;5037220;28;20274;-75
2021/05/12 03:06:41;;;;;;;;;;;21.20;59.30;;;;;;5046668;28;20270;-74
2021/05/12 03:09:07;;;;;;;;;;;21.30;59.30;;;;;;5050464;28;20290;-74
2021/05/12 03:11:38;;;;;;;;;;;21.30;59.30;;;;;;5036630;28;19935;-74
2021/05/12 03:14:04;;;;;;;;;;;21.30;59.30;;;;;;5033563;28;19959;-74
2021/05/12 03:16:30;;;;;;;;;;;21.30;59.30;;;;;;5055175;28;19935;-74
2021/05/12 03:18:56;;;;;;;;;;;21.20;59.30;;;;;;5054989;28;20285;-74
2021/05/12 03:21:21;;;;;;;;;;;21.30;59.30;;;;;;5034383;28;20010;-74
2021/05/12 03:23:51;;;;;;;;;;;21.20;59.20;;;;;;5049542;28;19921;-74
2021/05/12 03:26:17;;;;;;;;;;;21.20;59.20;;;;;;5051445;28;19920;-75
2021/05/12 03:28:46;;;;;;;;;;;21.20;59.30;;;;;;5050980;28;19921;-74
2021/05/12 03:31:12;;;;;;;;;;;21.20;59.20;;;;;;5052330;28;20023;-75
2021/05/12 03:33:37;;;;;;;;;;;21.30;59.30;;;;;;5050353;28;20007;-74
2021/05/12 03:36:04;;;;;;;;;;;21.20;59.20;;;;;;5061016;28;19936;-75
2021/05/12 03:38:30;;;;;;;;;;;21.20;59.30;;;;;;5050020;28;20000;-75
2021/05/12 03:40:55;;;;;;;;;;;21.20;59.30;;;;;;5028534;28;20406;-74
2021/05/12 03:43:21;;;;;;;;;;;21.20;59.30;;;;;;5052388;28;20301;-74
2021/05/12 03:45:46;;;;;;;;;;;21.20;59.20;;;;;;5050866;28;19979;-76
2021/05/12 03:48:12;;;;;;;;;;;21.20;59.20;;;;;;5036051;28;19917;-74
2021/05/12 03:50:38;;;;;;;;;;;21.20;59.20;;;;;;5049626;28;19943;-74
2021/05/12 03:53:08;;;;;;;;;;;21.20;59.20;;;;;;5054834;28;19913;-74
2021/05/12 03:55:34;;;;;;;;;;;21.20;59.20;;;;;;5034371;28;19975;-76
2021/05/12 03:58:00;;;;;;;;;;;21.20;59.20;;;;;;5052983;28;19916;-75
2021/05/12 04:00:25;;;;;;;;;;;21.20;59.20;;;;;;5041028;28;19921;-75
2021/05/12 04:02:51;;;;;;;;;;;21.20;59.20;;;;;;5052770;28;19920;-75
2021/05/12 04:05:17;;;;;;;;;;;21.20;59.20;;;;;;5052943;28;19928;-75
2021/05/12 04:07:42;;;;;;;;;;;21.20;59.20;;;;;;5037682;28;20407;-75
2021/05/12 04:10:08;;;;;;;;;;;21.20;59.20;;;;;;5053839;28;19985;-74
2021/05/12 04:12:39;;;;;;;;;;;21.20;59.20;;;;;;5040781;28;19916;-75
2021/05/12 04:15:05;;;;;;;;;;;21.20;59.20;;;;;;5055170;28;19912;-74
2021/05/12 04:17:31;;;;;;;;;;;21.20;59.20;;;;;;5043633;28;19923;-76
2021/05/12 04:19:56;;;;;;;;;;;21.20;59.20;;;;;;5052116;28;19913;-75
2021/05/12 04:22:22;;;;;;;;;;;21.20;59.30;;;;;;5052873;28;20274;-75
2021/05/12 04:24:52;;;;;;;;;;;21.20;59.20;;;;;;5052568;28;20282;-75
2021/05/12 04:27:18;;;;;;;;;;;21.20;59.20;;;;;;5051080;28;20580;-75
2021/05/12 04:29:48;;;;;;;;;;;21.20;59.20;;;;;;5040923;28;19923;-75
2021/05/12 04:32:14;;;;;;;;;;;21.20;59.20;;;;;;5054959;28;19923;-75
2021/05/12 04:34:39;;;;;;;;;;;21.20;59.20;;;;;;5056679;28;19921;-76
2021/05/12 04:37:05;;;;;;;;;;;21.20;59.20;;;;;;5038052;28;19920;-76
2021/05/12 04:39:30;;;;;;;;;;;21.20;59.10;;;;;;5055495;28;19974;-76
2021/05/12 04:42:01;;;;;;;;;;;21.20;59.20;;;;;;5052895;28;20374;-76
2021/05/12 04:44:26;;;;;;;;;;;21.20;59.10;;;;;;5055398;28;20618;-76
2021/05/12 04:46:52;;;;;;;;;;;21.20;59.20;;;;;;5061444;28;19927;-75
2021/05/12 04:49:18;;;;;;;;;;;21.20;59.20;;;;;;5032234;28;20366;-75
2021/05/12 04:51:43;;;;;;;;;;;21.20;59.10;;;;;;5058808;28;19913;-75
2021/05/12 04:54:11;;;;;;;;;;;21.20;59.10;;;;;;5054284;28;19913;-75
2021/05/12 04:56:37;;;;;;;;;;;21.20;59.10;;;;;;5051025;28;19919;-75
2021/05/12 04:59:03;;;;;;;;;;;21.20;59.10;;;;;;5026891;28;19952;-76
2021/05/12 05:01:30;;;;;;;;;;;21.20;59.10;;;;;;5040262;28;19967;-76
2021/05/12 05:03:57;;;;;;;;;;;21.20;59.10;;;;;;5051067;28;19971;-76
2021/05/12 05:06:23;;;;;;;;;;;21.20;59.10;;;;;;5058113;28;19916;-75
2021/05/12 05:08:48;;;;;;;;;;;21.20;59.10;;;;;;5051336;28;19920;-76
2021/05/12 05:11:14;;;;;;;;;;;21.20;59.10;;;;;;5054726;28;19917;-76
2021/05/12 05:13:39;;;;;;;;;;;21.20;59.10;;;;;;5055160;28;19921;-76
2021/05/12 05:16:06;;;;;;;;;;;21.20;59.10;;;;;;5053459;28;20247;-75
2021/05/12 05:18:35;;;;;;;;;;;21.20;59.10;;;;;;5039350;28;19913;-76
2021/05/12 05:21:05;;;;;;;;;;;21.20;59.10;;;;;;5055027;28;19920;-76
2021/05/12 05:23:34;;;;;;;;;;;21.20;59.10;;;;;;5056449;28;20374;-76
2021/05/12 05:26:00;;;;;;;;;;;21.20;59.00;;;;;;5051035;28;19921;-75
2021/05/12 05:28:26;;;;;;;;;;;21.20;59.10;;;;;;5055331;28;19920;-76
2021/05/12 05:30:51;;;;;;;;;;;21.20;59.10;;;;;;5053672;28;20011;-75
2021/05/12 05:33:17;;;;;;;;;;;21.20;59.00;;;;;;5054447;28;19931;-76
2021/05/12 05:35:47;;;;;;;;;;;21.20;59.10;;;;;;5037630;28;19966;-76
2021/05/12 05:38:13;;;;;;;;;;;21.20;59.00;;;;;;5050130;28;19999;-76
2021/05/12 05:40:38;;;;;;;;;;;21.20;59.10;;;;;;5039501;28;20377;-75
2021/05/12 05:43:09;;;;;;;;;;;21.20;59.00;;;;;;5038109;28;19917;-76
2021/05/12 05:45:35;;;;;;;;;;;21.20;59.10;;;;;;5049847;28;20418;-76
2021/05/12 05:48:00;;;;;;;;;;;21.20;59.10;;;;;;5036593;28;20061;-75
2021/05/12 05:50:26;;;;;;;;;;;21.20;59.10;;;;;;5055782;28;20353;-75
2021/05/12 05:52:55;;;;;;;;;;;21.20;59.00;;;;;;5060268;28;20046;-75
2021/05/12 05:55:26;;;;;;;;;;;21.20;59.00;;;;;;5036262;28;19921;-76
2021/05/12 05:57:56;;;;;;;;;;;21.20;59.00;;;;;;5058006;28;19916;-75
2021/05/12 06:00:22;;;;;;;;;;;21.20;59.00;;;;;;5057854;28;19988;-75
2021/05/12 06:02:58;;;;;;;;;;;21.20;59.00;;;;;;5049427;28;19936;-75
2021/05/12 06:05:26;;;;;;;;;;;21.20;59.00;;;;;;5052020;28;19924;-75
2021/05/12 06:07:57;;;;;;;;;;;21.20;59.00;;;;;;5044520;28;19921;-75
2021/05/12 06:10:22;;;;;;;;;;;21.20;59.00;;;;;;5028846;28;19925;-74
2021/05/12 06:13:08;;;;;;;;;;;21.20;59.00;;;;;;5046419;28;19928;-75
2021/05/12 06:15:40;;;;;;;;;;;21.20;59.00;;;;;;5033111;28;19913;-75
2021/05/12 06:18:13;;;;;;;;;;;21.20;59.00;;;;;;5033233;28;19913;-75
2021/05/12 06:20:44;;;;;;;;;;;21.20;59.00;;;;;;5034047;28;19920;-75
2021/05/12 06:23:09;;;;;;;;;;;21.20;58.90;;;;;;5031170;28;19928;-76
2021/05/12 06:25:35;;;;;;;;;;;21.20;58.90;;;;;;5036031;28;20003;-76
2021/05/12 06:28:00;;;;;;;;;;;21.20;58.90;;;;;;5039570;28;19935;-75
2021/05/12 06:30:26;;;;;;;;;;;21.20;58.90;;;;;;5033996;28;19913;-75
2021/05/12 06:32:52;;;;;;;;;;;21.20;58.90;;;;;;5034298;28;20439;-75
2021/05/12 06:35:18;;;;;;;;;;;21.20;58.90;;;;;;5032193;28;19921;-75
2021/05/12 06:37:45;;;;;;;;;;;21.20;58.80;;;;;;5031708;28;20358;-75
2021/05/12 06:40:11;;;;;;;;;;;21.20;58.80;;;;;;5032620;28;19917;-75
2021/05/12 06:42:37;;;;;;;;;;;21.20;58.90;;;;;;5026003;28;19960;-75
2021/05/12 06:45:03;;;;;;;;;;;21.20;58.90;;;;;;5034797;28;19956;-75
2021/05/12 06:47:28;;;;;;;;;;;21.20;58.90;;;;;;5047387;28;19921;-75
2021/05/12 06:49:54;;;;;;;;;;;21.20;58.90;;;;;;5035074;28;19913;-75
2021/05/12 06:52:19;;;;;;;;;;;21.20;58.90;;;;;;5031818;28;19913;-75
2021/05/12 06:54:45;;;;;;;;;;;21.20;58.80;;;;;;5035325;28;19967;-76
2021/05/12 06:57:10;;;;;;;;;;;21.20;58.80;;;;;;5037055;28;19924;-74
2021/05/12 06:59:36;;;;;;;;;;;21.20;58.90;;;;;;5034169;28;20352;-75
2021/05/12 07:02:01;;;;;;;;;;;21.20;58.80;;;;;;5033432;28;19936;-75
2021/05/12 07:04:27;;;;;;;;;;;21.20;58.90;;;;;;5032599;28;19975;-75
2021/05/12 07:06:52;;;;;;;;;;;21.20;58.90;;;;;;5029601;28;20008;-75
2021/05/12 07:09:18;;;;;;;;;;;21.20;58.90;;;;;;5048148;28;20380;-76
2021/05/12 07:11:43;;;;;;;;;;;21.20;58.90;;;;;;5059268;28;19917;-74
2021/05/12 07:14:09;;;;;;;;;;;21.20;58.80;;;;;;5030648;28;19913;-75
2021/05/12 07:16:34;;;;;;;;;;;21.20;58.90;;;;;;5049694;28;20362;-75
2021/05/12 07:19:05;;;;;;;;;;;21.20;58.90;;;;;;5033632;28;19913;-75
2021/05/12 07:21:31;;;;;;;;;;;21.20;58.80;;;;;;5025776;28;19952;-75
2021/05/12 07:23:57;;;;;;;;;;;21.20;58.80;;;;;;5042347;28;19959;-75
2021/05/12 07:26:24;;;;;;;;;;;21.20;58.80;;;;;;5032597;28;19916;-75
2021/05/12 07:28:50;;;;;;;;;;;21.20;58.90;;;;;;5054401;28;19917;-75
2021/05/12 07:31:15;;;;;;;;;;;21.20;58.80;;;;;;5059089;28;20003;-75
2021/05/12 07:33:41;;;;;;;;;;;21.20;58.80;;;;;;5056062;28;19920;-76
2021/05/12 07:36:07;;;;;;;;;;;21.20;58.90;;;;;;5054330;28;19920;-75
2021/05/12 07:38:32;;;;;;;;;;;21.20;58.80;;;;;;5050306;28;20370;-75
2021/05/12 07:41:00;;;;;;;;;;;21.20;58.80;;;;;;5043372;28;19920;-76
2021/05/12 07:43:26;;;;;;;;;;;21.30;58.80;;;;;;5035702;28;20805;-75
2021/05/12 07:45:52;;;;;;;;;;;21.20;58.70;;;;;;5052472;28;19971;-75
2021/05/12 07:48:17;;;;;;;;;;;21.20;58.80;;;;;;5056675;28;20037;-75
2021/05/12 07:50:43;;;;;;;;;;;21.20;58.80;;;;;;5054629;28;20058;-75
2021/05/12 07:53:08;;;;;;;;;;;21.20;58.80;;;;;;5034478;28;19913;-75
2021/05/12 07:55:34;;;;;;;;;;;21.20;58.80;;;;;;5057305;28;19920;-75
2021/05/12 07:58:00;;;;;;;;;;;21.30;58.80;;;;;;5043159;28;20385;-74
2021/05/12 08:00:26;;;;;;;;;;;21.20;58.70;;;;;;5039465;28;20009;-74
2021/05/12 08:02:51;;;;;;;;;;;21.30;58.70;;;;;;5035420;28;20055;-76
2021/05/12 08:05:17;;;;;;;;;;;21.20;58.70;;;;;;5063483;28;19917;-75
2021/05/12 08:07:43;;;;;;;;;;;21.30;58.80;;;;;;5060557;28;19917;-75
2021/05/12 08:10:08;;;;;;;;;;;21.20;58.80;;;;;;5034620;28;19987;-75
2021/05/12 08:12:34;;;;;;;;;;;21.20;58.80;;;;;;5026495;28;20366;-75
2021/05/12 08:15:00;;;;;;;;;;;21.20;58.80;;;;;;5033774;28;20415;-75
2021/05/12 08:17:31;;;;;;;;;;;21.20;58.80;;;;;;5037477;28;20393;-75
2021/05/12 08:20:02;;;;;;;;;;;21.20;58.70;;;;;;5036197;28;19913;-75
2021/05/12 08:22:28;;;;;;;;;;;21.20;58.80;;;;;;5035832;28;19964;-77
2021/05/12 08:24:53;;;;;;;;;;;21.20;58.80;;;;;;5034403;28;20310;-75
2021/05/12 08:27:19;;;;;;;;;;;21.20;58.80;;;;;;5035478;28;20412;-75
2021/05/12 08:29:49;;;;;;;;;;;21.20;58.80;;;;;;5041398;28;20337;-75
2021/05/12 08:32:16;;;;;;;;;;;21.30;58.70;;;;;;5037806;28;19921;-76
2021/05/12 08:34:42;;;;;;;;;;;21.20;58.70;;;;;;5036040;28;20265;-74
2021/05/12 08:37:07;;;;;;;;;;;21.20;58.70;;;;;;5034653;28;20000;-75
2021/05/12 08:39:33;;;;;;;;;;;21.20;58.70;;;;;;5040614;28;19917;-75
2021/05/12 08:41:59;;;;;;;;;;;21.20;58.60;;;;;;5033104;28;19917;-75
2021/05/12 08:44:25;;;;;;;;;;;21.30;58.60;;;;;;5048073;28;20259;-76
2021/05/12 08:46:51;;;;;;;;;;;21.20;58.60;;;;;;5039040;28;19932;-75
2021/05/12 08:49:23;;;;;;;;;;;21.20;58.60;;;;;;5040035;28;19959;-74
2021/05/12 08:52:03;;;;;;;;;;;21.30;58.60;;;;;;5035600;28;19914;-75
2021/05/12 08:54:29;;;;;;;;;;;21.30;58.60;;;;;;5031463;28;20394;-75
2021/05/12 08:56:59;;;;;;;;;;;21.30;58.60;;;;;;5037479;28;19912;-74
2021/05/12 08:59:25;;;;;;;;;;;21.30;58.60;;;;;;5032725;28;19939;-75
2021/05/12 09:01:50;;;;;;;;;;;21.30;58.50;;;;;;5038535;28;20154;-75
2021/05/12 09:04:16;;;;;;;;;;;21.30;58.50;;;;;;5034718;28;19921;-77
2021/05/12 09:06:41;;;;;;;;;;;21.30;58.40;;;;;;5033929;28;19921;-75
2021/05/12 09:09:07;;;;;;;;;;;21.30;58.40;;;;;;5044816;28;19989;-75
2021/05/12 09:11:33;;;;;;;;;;;21.30;58.40;;;;;;5040616;28;19923;-74
2021/05/12 09:13:59;;;;;;;;;;;21.30;58.40;;;;;;5054209;28;19913;-75
2021/05/12 09:16:29;;;;;;;;;;;21.30;58.40;;;;;;5052986;28;19913;-75
2021/05/12 09:19:06;;;;;;;;;;;21.30;58.50;;;;;;5034833;28;19919;-74
2021/05/12 09:21:45;;;;;;;;;;;21.30;58.40;;;;;;5054595;28;19916;-75
2021/05/12 09:24:27;;;;;;;;;;;21.30;58.40;;;;;;5039350;28;19916;-75
2021/05/12 09:26:54;;;;;;;;;;;21.30;58.30;;;;;;5050707;28;19932;-75
2021/05/12 09:29:21;;;;;;;;;;;21.30;58.30;;;;;;5055233;28;19912;-75
2021/05/12 09:31:46;;;;;;;;;;;21.30;58.30;;;;;;5049330;28;19919;-75
2021/05/12 09:34:12;;;;;;;;;;;21.30;58.30;;;;;;5037961;28;19913;-75
2021/05/12 09:36:37;;;;;;;;;;;21.30;58.30;;;;;;5053425;28;19999;-76
2021/05/12 09:39:08;;;;;;;;;;;21.30;58.30;;;;;;5036513;28;20384;-75
2021/05/12 09:41:34;;;;;;;;;;;21.30;58.30;;;;;;5062274;28;19955;-76
2021/05/12 09:44:01;;;;;;;;;;;21.30;58.30;;;;;;5033280;28;19924;-75
2021/05/12 09:46:31;;;;;;;;;;;21.30;58.30;;;;;;5037706;28;19927;-76
2021/05/12 09:49:00;;;;;;;;;;;21.30;58.30;;;;;;5052947;28;20270;-75
2021/05/12 09:51:35;;;;;;;;;;;21.30;58.30;;;;;;5052473;28;19913;-75
2021/05/12 09:54:04;;;;;;;;;;;21.30;58.30;;;;;;5048975;28;19916;-76
2021/05/12 09:56:37;;;;;;;;;;;21.30;58.30;;;;;;5051312;28;20366;-76
2021/05/12 09:59:12;;;;;;;;;;;21.20;58.30;;;;;;5051022;28;19959;-75
2021/05/12 10:01:41;;;;;;;;;;;21.30;58.30;;;;;;5050565;28;19923;-75
2021/05/12 10:04:34;;;;;;;;;;;;;;;;;;;;;
2021/05/12 10:07:11;;;;;;;;;;;21.20;58.30;;;;;;5057446;28;19916;-75
2021/05/12 10:09:52;;;;;;;;;;;;;;;;;;;;;
2021/05/12 10:12:34;;;;;;;;;;;21.20;58.40;;;;;;5055683;28;19913;-75
2021/05/12 10:15:00;;;;;;;;;;;21.30;58.40;;;;;;5050432;28;20608;-75
2021/05/12 10:17:32;;;;;;;;;;;21.20;58.40;;;;;;5055353;28;20370;-77
2021/05/12 10:19:58;;;;;;;;;;;21.20;58.40;;;;;;5038646;28;19913;-77
2021/05/12 10:22:23;;;;;;;;;;;21.30;58.40;;;;;;5051564;28;19919;-76
2021/05/12 10:24:54;;;;;;;;;;;21.20;58.30;;;;;;5056580;28;19923;-76
2021/05/12 10:27:25;;;;;;;;;;;21.30;58.30;;;;;;5037694;28;19960;-76
2021/05/12 10:29:54;;;;;;;;;;;21.30;58.30;;;;;;5055607;28;19913;-76
2021/05/12 10:32:24;;;;;;;;;;;21.20;58.30;;;;;;5028735;28;19999;-77
2021/05/12 10:35:09;;;;;;;;;;;21.30;58.30;;;;;;5057866;28;19916;-77
2021/05/12 10:37:40;;;;;;;;;;;21.30;58.40;;;;;;5047899;28;20677;-78
2021/05/12 10:40:20;;;;;;;;;;;21.20;58.40;;;;;;5054179;28;20317;-76
2021/05/12 10:45:20;;;;;;;;;;;21.20;58.40;;;;;;5048765;28;19925;-76
2021/05/12 10:47:47;;;;;;;;;;;21.20;58.40;;;;;;5043514;28;20554;-77
2021/05/12 10:50:12;;;;;;;;;;;21.20;58.50;;;;;;5036665;28;19913;-75
2021/05/12 10:52:38;;;;;;;;;;;21.20;58.40;;;;;;5051566;28;19989;-76
2021/05/12 10:55:04;;;;;;;;;;;21.20;58.50;;;;;;5052393;28;20396;-77
2021/05/12 10:57:35;;;;;;;;;;;21.20;58.40;;;;;;5051629;28;20273;-77
2021/05/12 11:00:01;;;;;;;;;;;21.20;58.40;;;;;;5034507;28;19925;-76
2021/05/12 11:02:50;;;;;;;;;;;21.20;58.40;;;;;;5049431;28;20408;-76
2021/05/12 11:05:16;;;;;;;;;;;21.20;58.30;;;;;;5051991;28;20374;-76
2021/05/12 11:08:00;;;;;;;;;;;21.30;58.30;;;;;;5041225;28;19924;-75
2021/05/12 11:10:26;;;;;;;;;;;21.30;58.20;;;;;;5061415;28;20389;-76
2021/05/12 11:13:11;;;;;;;;;;;21.30;58.20;;;;;;5042666;28;19917;-76
2021/05/12 11:16:12;;;;;;;;;;;21.20;58.20;;;;;;5054279;28;19952;-76
2021/05/12 11:18:38;;;;;;;;;;;21.30;58.30;;;;;;4978593;28;19914;-75
2021/05/12 11:21:40;;;;;;;;;;;21.30;58.20;;;;;;5041665;28;20321;-76
2021/05/12 11:24:15;;;;;;;;;;;21.20;58.20;;;;;;5054157;28;20370;-78
2021/05/12 11:32:01;;;;;;;;;;;21.20;58.30;;;;;;5055246;28;19935;-79
2021/05/12 11:34:30;;;;;;;;;;;21.30;58.20;;;;;;5051161;28;19925;-76
2021/05/12 11:37:11;;;;;;;;;;;21.30;58.20;;;;;;5055117;28;19974;-76
2021/05/12 11:39:37;;;;;;;;;;;21.30;58.10;;;;;;5052120;28;20021;-75
2021/05/12 11:42:03;;;;;;;;;;;21.30;58.00;;;;;;5035422;28;19978;-75
2021/05/12 11:44:29;;;;;;;;;;;21.30;58.00;;;;;;5059546;28;20378;-76
2021/05/12 11:46:54;;;;;;;;;;;21.30;58.10;;;;;;5036178;28;19929;-76
2021/05/12 11:49:22;;;;;;;;;;;21.30;58.20;;;;;;5053314;28;19913;-76
2021/05/12 11:51:51;;;;;;;;;;;21.30;58.20;;;;;;5055968;28;19924;-78
2021/05/12 11:54:18;;;;;;;;;;;21.20;58.30;;;;;;5031372;28;20346;-76
2021/05/12 11:56:48;;;;;;;;;;;21.20;58.40;;;;;;5052496;28;19920;-76
2021/05/12 11:59:22;;;;;;;;;;;21.20;58.40;;;;;;5055373;28;19920;-76
2021/05/12 12:01:55;;;;;;;;;;;21.20;58.40;;;;;;5033768;28;19921;-76
2021/05/12 12:04:27;;;;;;;;;;;21.20;58.40;;;;;;5052573;28;19943;-77
2021/05/12 12:06:53;;;;;;;;;;;21.20;58.40;;;;;;5061654;28;19929;-75
2021/05/12 12:09:19;;;;;;;;;;;21.20;58.40;;;;;;5036642;28;19975;-77
2021/05/12 12:11:45;;;;;;;;;;;21.20;58.50;;;;;;5060765;28;19967;-75
2021/05/12 12:14:11;;;;;;;;;;;21.20;58.50;;;;;;5038808;28;20007;-77
2021/05/12 12:16:37;;;;;;;;;;;21.20;58.50;;;;;;5031219;28;20011;-76
2021/05/12 12:19:24;;;;;;;;;;;21.20;58.50;;;;;;5061073;28;19934;-75
2021/05/12 12:21:53;;;;;;;;;;;21.20;58.50;;;;;;5039168;28;19949;-76
2021/05/12 12:24:22;;;;;;;;;;;21.10;58.50;;;;;;5057007;28;19920;-76
2021/05/12 12:26:55;;;;;;;;;;;21.20;58.50;;;;;;5035202;28;19921;-76
2021/05/12 12:29:30;;;;;;;;;;;21.20;58.40;;;;;;5054170;28;19913;-76
2021/05/12 12:31:57;;;;;;;;;;;21.20;58.40;;;;;;5058022;28;20011;-76
2021/05/12 12:34:24;;;;;;;;;;;21.20;58.40;;;;;;5063105;28;19919;-76
2021/05/12 12:37:01;;;;;;;;;;;21.20;58.40;;;;;;5056261;28;20008;-76
2021/05/12 12:39:36;;;;;;;;;;;21.20;58.40;;;;;;5055393;28;20389;-75
2021/05/12 12:42:02;;;;;;;;;;;21.20;58.40;;;;;;5054002;28;20290;-76
2021/05/12 12:44:38;;;;;;;;;;;21.20;58.30;;;;;;5052143;28;20270;-77
2021/05/12 12:47:10;;;;;;;;;;;21.20;58.30;;;;;;5038831;28;19925;-76
2021/05/12 12:49:37;;;;;;;;;;;21.20;58.40;;;;;;5052014;28;20007;-76
2021/05/12 12:52:13;;;;;;;;;;;21.20;58.40;;;;;;5036646;28;19920;-78
2021/05/12 12:54:48;;;;;;;;;;;21.20;58.40;;;;;;5051218;28;20255;-76
2021/05/12 12:57:14;;;;;;;;;;;21.20;58.50;;;;;;5048692;28;19921;-75
2021/05/12 12:59:58;;;;;;;;;;;21.20;58.50;;;;;;5051917;28;19912;-76
2021/05/12 13:02:23;;;;;;;;;;;21.20;58.50;;;;;;5047951;28;20007;-76
2021/05/12 13:05:08;;;;;;;;;;;21.20;58.50;;;;;;5054126;28;20019;-76
2021/05/12 13:07:34;;;;;;;;;;;21.20;58.50;;;;;;5055742;28;19925;-76
2021/05/12 13:10:19;;;;;;;;;;;21.20;58.50;;;;;;5037351;28;19920;-75
2021/05/12 13:12:45;;;;;;;;;;;21.20;58.50;;;;;;5057032;28;19999;-78
2021/05/12 13:15:19;;;;;;;;;;;21.20;58.60;;;;;;5053444;28;19998;-77
2021/05/12 13:17:55;;;;;;;;;;;21.20;58.60;;;;;;5037956;28;19942;-77
2021/05/12 13:20:20;;;;;;;;;;;21.20;58.60;;;;;;5034477;28;20361;-80
2021/05/12 13:23:04;;;;;;;;;;;21.20;58.60;;;;;;5051534;28;19913;-77
2021/05/12 13:25:31;;;;;;;;;;;21.20;58.60;;;;;;5051731;28;19917;-76
2021/05/12 13:27:57;;;;;;;;;;;21.20;58.50;;;;;;5055024;28;19917;-77
2021/05/12 13:30:23;;;;;;;;;;;21.20;58.40;;;;;;5057402;28;19921;-77
2021/05/12 13:32:48;;;;;;;;;;;21.20;58.50;;;;;;5036935;28;20278;-76
2021/05/12 13:35:14;;;;;;;;;;;21.20;58.40;;;;;;5047076;28;20272;-75
2021/05/12 13:37:40;;;;;;;;;;;21.20;58.40;;;;;;5052677;28;19925;-76
2021/05/12 13:40:07;;;;;;;;;;;21.20;58.40;;;;;;5034786;28;19916;-75
2021/05/12 13:42:32;;;;;;;;;;;21.20;58.50;;;;;;5033650;28;20019;-75
2021/05/12 13:44:58;;;;;;;;;;;21.20;58.50;;;;;;5033602;28;20008;-75
2021/05/12 13:47:23;;;;;;;;;;;21.20;58.40;;;;;;5032512;28;19939;-75
2021/05/12 13:49:49;;;;;;;;;;;21.30;58.40;;;;;;5041752;28;20329;-75
2021/05/12 13:52:21;;;;;;;;;;;21.30;58.30;;;;;;5057280;28;19913;-74
2021/05/12 13:54:52;;;;;;;;;;;21.30;58.30;;;;;;5039354;28;20011;-75
2021/05/12 13:58:21;;;;;;;;;;;21.30;58.10;;;;;;5034252;28;20370;-76
2021/05/12 14:00:20;;;;;;;;;;;21.30;58.00;;;;;;5041360;28;19913;-74
2021/05/12 14:02:55;;;;;;;;;;;21.30;58.00;;;;;;5033927;28;19920;-75
2021/05/12 14:05:21;;;;;;;;;;;21.30;57.90;;;;;;5034554;28;19917;-75
2021/05/12 14:07:47;;;;;;;;;;;21.30;57.70;;;;;;5039857;28;19927;-76
2021/05/12 14:10:17;;;;;;;;;;;21.30;57.70;;;;;;5052478;28;20378;-75
2021/05/12 14:12:48;;;;;;;;;;;21.30;57.70;;;;;;5048640;28;19958;-75
2021/05/12 14:17:42;;;;;;;;;;;21.30;57.80;;;;;;5055619;28;20023;-75
2021/05/12 14:20:08;;;;;;;;;;;21.30;57.80;;;;;;5048171;28;20075;-77
2021/05/12 14:22:34;;;;;;;;;;;21.30;57.80;;;;;;5035477;28;19917;-76
2021/05/12 14:24:59;;;;;;;;;;;21.30;57.90;;;;;;5048577;28;19986;-76
2021/05/12 14:27:25;;;;;;;;;;;21.30;57.90;;;;;;5034708;28;19923;-76
2021/05/12 14:29:53;;;;;;;;;;;21.30;58.00;;;;;;5054035;28;20439;-76
2021/05/12 14:32:18;;;;;;;;;;;21.30;58.00;;;;;;5050073;28;19978;-76
2021/05/12 14:34:44;;;;;;;;;;;21.30;58.00;;;;;;5031766;28;19913;-76